Time;durP1;ratioP1;P1;durP2;ratioP2;P2;SDS_P1;SDS_P2;PMS_P1;PMS_P2;Temp;Humidity;BMP_temperature;BMP_pressure;BME280_temperature;BME280_humidity;BME280_pressure;Samples;Min_cycle;Max_cycle;Signal;HPM_P1;HPM_P2
2022/03/02 00:01:36;;;;;;;39.72;26.73;;;6.50;99.90;;;;;;5106079;28;20056;-67
2022/03/02 00:04:02;;;;;;;42.95;27.25;;;6.50;99.90;;;;;;5091882;28;20557;-67
2022/03/02 00:06:28;;;;;;;44.22;28.10;;;6.60;99.90;;;;;;5105425;28;20393;-67
2022/03/02 00:08:54;;;;;;;41.65;28.00;;;6.60;99.90;;;;;;5102236;28;20103;-67
2022/03/02 00:11:20;;;;;;;42.30;27.80;;;6.50;99.90;;;;;;5107311;28;20104;-67
2022/03/02 00:13:45;;;;;;;43.35;26.83;;;6.50;99.90;;;;;;5105711;28;20461;-67
2022/03/02 00:16:12;;;;;;;42.58;27.45;;;6.50;99.90;;;;;;5104938;28;20044;-67
2022/03/02 00:18:39;;;;;;;43.17;28.13;;;6.60;99.90;;;;;;5097920;28;20484;-67
2022/03/02 00:21:05;;;;;;;43.47;27.77;;;6.50;99.90;;;;;;5105703;28;20118;-67
2022/03/02 00:23:31;;;;;;;45.38;28.50;;;6.50;99.90;;;;;;5098070;28;20083;-67
2022/03/02 00:25:57;;;;;;;42.58;27.27;;;6.60;99.90;;;;;;5103954;28;20052;-67
2022/03/02 00:28:24;;;;;;;45.05;27.98;;;6.50;99.90;;;;;;5106550;28;20108;-67
2022/03/02 00:30:51;;;;;;;51.25;29.52;;;6.60;99.90;;;;;;5104586;28;20404;-67
2022/03/02 00:33:17;;;;;;;46.33;27.55;;;6.60;99.90;;;;;;5105423;28;20037;-67
2022/03/02 00:35:43;;;;;;;45.17;28.10;;;6.60;99.90;;;;;;5105584;28;20051;-67
2022/03/02 00:38:10;;;;;;;44.92;27.83;;;6.60;99.90;;;;;;5103407;28;20084;-67
2022/03/02 00:40:40;;;;;;;42.33;27.08;;;6.70;99.90;;;;;;5105323;28;20482;-67
2022/03/02 00:43:07;;;;;;;41.47;26.52;;;6.70;99.90;;;;;;5105481;28;20075;-67
2022/03/02 00:45:33;;;;;;;44.83;29.02;;;6.70;99.90;;;;;;5105161;28;20059;-67
2022/03/02 00:48:00;;;;;;;44.97;28.25;;;6.60;99.90;;;;;;5100639;28;20052;-67
2022/03/02 00:50:26;;;;;;;42.65;27.58;;;6.50;99.90;;;;;;5103828;28;20044;-67
2022/03/02 00:52:52;;;;;;;43.70;29.50;;;6.40;99.90;;;;;;5103932;28;20048;-67
2022/03/02 00:55:18;;;;;;;40.40;26.95;;;6.40;99.90;;;;;;5103621;28;20040;-67
2022/03/02 00:57:44;;;;;;;45.35;27.77;;;6.40;99.90;;;;;;5102956;28;20079;-67
2022/03/02 01:00:11;;;;;;;42.53;27.60;;;6.30;99.90;;;;;;5104970;28;20032;-67
2022/03/02 01:02:37;;;;;;;43.72;27.38;;;6.40;99.90;;;;;;5102446;28;20388;-67
2022/03/02 01:05:04;;;;;;;44.20;28.85;;;6.10;99.90;;;;;;5094556;28;20099;-67
2022/03/02 01:07:30;;;;;;;48.15;29.80;;;6.00;99.90;;;;;;5103295;28;20047;-67
2022/03/02 01:09:56;;;;;;;43.90;27.52;;;6.10;99.90;;;;;;5105959;28;20105;-67
2022/03/02 01:12:22;;;;;;;44.35;27.88;;;6.00;99.90;;;;;;5096873;28;20052;-67
2022/03/02 01:14:48;;;;;;;51.03;29.60;;;6.00;99.90;;;;;;5105075;28;20066;-67
2022/03/02 01:17:14;;;;;;;48.72;29.65;;;6.00;99.90;;;;;;5104028;28;20059;-67
2022/03/02 01:19:39;;;;;;;47.50;27.73;;;6.00;99.90;;;;;;5103726;28;20036;-67
2022/03/02 01:22:06;;;;;;;44.65;29.20;;;5.90;99.90;;;;;;5104601;28;20046;-67
2022/03/02 01:24:32;;;;;;;46.88;27.65;;;5.80;99.90;;;;;;5105585;28;20046;-67
2022/03/02 01:26:58;;;;;;;44.42;27.90;;;5.80;99.90;;;;;;5104294;28;20099;-67
2022/03/02 01:29:24;;;;;;;44.60;28.23;;;5.70;99.90;;;;;;5103424;28;20055;-67
2022/03/02 01:31:49;;;;;;;44.63;28.23;;;5.70;99.90;;;;;;5104154;28;20495;-67
2022/03/02 01:34:15;;;;;;;44.38;28.33;;;5.80;99.90;;;;;;5105036;28;20032;-67
2022/03/02 01:36:41;;;;;;;44.55;29.85;;;5.80;99.90;;;;;;5102492;28;20086;-67
2022/03/02 01:39:07;;;;;;;46.13;27.55;;;5.70;99.90;;;;;;5104193;28;20044;-67
2022/03/02 01:41:34;;;;;;;46.28;28.23;;;5.70;99.90;;;;;;5103101;28;20039;-67
2022/03/02 01:43:59;;;;;;;45.10;28.15;;;5.70;99.90;;;;;;5103275;28;20115;-67
2022/03/02 01:46:26;;;;;;;48.30;30.85;;;5.80;99.90;;;;;;5096944;28;20079;-67
2022/03/02 01:48:52;;;;;;;49.83;30.35;;;5.90;99.90;;;;;;5101595;28;20047;-67
2022/03/02 01:51:18;;;;;;;44.67;30.17;;;5.80;99.90;;;;;;5073240;28;20050;-67
2022/03/02 01:53:44;;;;;;;46.45;29.77;;;5.80;99.90;;;;;;5098630;28;20119;-67
2022/03/02 01:56:10;;;;;;;43.35;28.50;;;5.80;99.90;;;;;;5103892;28;20101;-67
2022/03/02 01:58:36;;;;;;;48.78;29.13;;;6.00;99.90;;;;;;5102353;28;20047;-67
2022/03/02 02:01:02;;;;;;;44.13;28.60;;;5.90;99.90;;;;;;5103118;28;20059;-67
2022/03/02 02:03:28;;;;;;;43.78;28.35;;;5.90;99.90;;;;;;5094855;28;20055;-67
2022/03/02 02:05:54;;;;;;;46.28;27.88;;;6.10;99.90;;;;;;5104044;28;20063;-67
2022/03/02 02:08:20;;;;;;;45.58;29.38;;;6.00;99.90;;;;;;5090228;28;20043;-67
2022/03/02 02:10:46;;;;;;;47.50;30.60;;;5.90;99.90;;;;;;5097192;28;20105;-67
2022/03/02 02:13:12;;;;;;;49.05;30.60;;;6.10;99.90;;;;;;5081408;28;20040;-67
2022/03/02 02:15:38;;;;;;;47.67;29.85;;;6.10;99.90;;;;;;5097854;28;20036;-67
2022/03/02 02:18:04;;;;;;;50.50;30.15;;;6.10;99.90;;;;;;5101550;28;20064;-67
2022/03/02 02:20:37;;;;;;;45.15;28.73;;;5.90;99.90;;;;;;5105083;28;20036;-67
2022/03/02 02:23:04;;;;;;;46.75;28.65;;;6.00;99.90;;;;;;5102927;28;20109;-67
2022/03/02 02:25:29;;;;;;;43.25;27.30;;;6.00;99.90;;;;;;5103588;28;20040;-67
2022/03/02 02:27:55;;;;;;;44.65;29.52;;;6.00;99.90;;;;;;5102322;28;20052;-67
2022/03/02 02:30:21;;;;;;;48.92;30.10;;;6.00;99.90;;;;;;5096651;28;20032;-67
2022/03/02 02:32:47;;;;;;;46.00;29.10;;;6.00;99.90;;;;;;5097850;28;20035;-67
2022/03/02 02:35:13;;;;;;;51.55;30.42;;;5.90;99.90;;;;;;5097615;28;20044;-67
2022/03/02 02:37:39;;;;;;;61.17;31.98;;;6.00;99.90;;;;;;5103484;28;20040;-67
2022/03/02 02:40:08;;;;;;;51.17;30.40;;;5.80;99.90;;;;;;5103488;28;20081;-67
2022/03/02 02:42:34;;;;;;;47.45;29.27;;;5.90;99.90;;;;;;5094110;28;20047;-67
2022/03/02 02:45:00;;;;;;;48.47;29.88;;;5.90;99.90;;;;;;5095623;28;20048;-67
2022/03/02 02:47:26;;;;;;;51.92;30.42;;;6.00;99.90;;;;;;5104713;28;20052;-67
2022/03/02 02:49:52;;;;;;;47.80;30.05;;;6.00;99.90;;;;;;5103678;28;20381;-67
2022/03/02 02:52:18;;;;;;;50.92;30.58;;;6.00;99.90;;;;;;5101842;28;20073;-67
2022/03/02 02:54:44;;;;;;;47.15;31.70;;;6.10;99.90;;;;;;5102176;28;20127;-67
2022/03/02 02:57:10;;;;;;;48.30;29.90;;;6.00;99.90;;;;;;5097979;28;20495;-67
2022/03/02 02:59:36;;;;;;;50.28;30.73;;;6.00;99.90;;;;;;5103979;28;20400;-66
2022/03/02 03:02:03;;;;;;;48.22;29.98;;;5.90;99.90;;;;;;5102621;28;20045;-67
2022/03/02 03:04:28;;;;;;;51.75;30.58;;;5.90;99.90;;;;;;5102767;28;20079;-67
2022/03/02 03:06:54;;;;;;;50.05;31.58;;;5.70;99.90;;;;;;5103055;28;20056;-67
2022/03/02 03:09:20;;;;;;;53.13;30.73;;;5.70;99.90;;;;;;5106115;28;20044;-67
2022/03/02 03:11:47;;;;;;;53.03;30.00;;;5.50;99.90;;;;;;5104088;28;20038;-67
2022/03/02 03:14:14;;;;;;;48.85;30.15;;;5.60;99.90;;;;;;5107191;28;20032;-67
2022/03/02 03:16:41;;;;;;;55.05;30.65;;;5.60;99.90;;;;;;5107060;28;20124;-67
2022/03/02 03:19:06;;;;;;;51.75;31.15;;;5.50;99.90;;;;;;5106938;28;20056;-67
2022/03/02 03:21:33;;;;;;;50.70;32.25;;;5.60;99.90;;;;;;5101806;28;20044;-67
2022/03/02 03:23:58;;;;;;;51.33;31.98;;;5.60;99.90;;;;;;5100708;28;20081;-67
2022/03/02 03:26:24;;;;;;;49.60;31.73;;;5.50;99.90;;;;;;5105486;28;20112;-67
2022/03/02 03:28:50;;;;;;;49.08;31.60;;;5.60;99.90;;;;;;5105818;28;20048;-67
2022/03/02 03:31:16;;;;;;;52.25;32.25;;;5.50;99.90;;;;;;5103275;28;20088;-67
2022/03/02 03:33:42;;;;;;;53.05;31.60;;;5.50;99.90;;;;;;5107189;28;20047;-67
2022/03/02 03:36:08;;;;;;;51.85;31.10;;;5.50;99.90;;;;;;5106446;28;20036;-67
2022/03/02 03:38:34;;;;;;;52.13;32.30;;;5.50;99.90;;;;;;5107418;28;20047;-67
2022/03/02 03:41:00;;;;;;;48.85;30.98;;;5.40;99.90;;;;;;5100563;28;20039;-67
2022/03/02 03:43:26;;;;;;;50.28;31.75;;;5.60;99.90;;;;;;5107685;28;20044;-67
2022/03/02 03:45:51;;;;;;;52.17;33.20;;;5.50;99.90;;;;;;5107122;28;20454;-67
2022/03/02 03:48:17;;;;;;;49.95;31.02;;;5.50;99.90;;;;;;5101573;28;20051;-67
2022/03/02 03:50:44;;;;;;;53.08;33.00;;;5.50;99.90;;;;;;5105886;28;20044;-67
2022/03/02 03:53:11;;;;;;;51.50;30.38;;;5.60;99.90;;;;;;5105958;28;20048;-66
2022/03/02 03:55:41;;;;;;;53.10;31.58;;;5.60;99.90;;;;;;5103599;28;20048;-67
2022/03/02 03:58:06;;;;;;;48.38;29.48;;;5.60;99.90;;;;;;5105981;28;20088;-67
2022/03/02 04:00:33;;;;;;;51.25;31.88;;;5.50;99.90;;;;;;5099265;28;20052;-67
2022/03/02 04:02:59;;;;;;;48.47;29.60;;;5.50;99.90;;;;;;5103596;28;20055;-67
2022/03/02 04:05:24;;;;;;;52.78;31.25;;;5.60;99.90;;;;;;5105025;28;20044;-67
2022/03/02 04:07:50;;;;;;;50.03;30.40;;;5.60;99.90;;;;;;5104732;28;20055;-67
2022/03/02 04:10:17;;;;;;;50.55;31.67;;;5.50;99.90;;;;;;5105479;28;20079;-67
2022/03/02 04:12:44;;;;;;;47.10;31.13;;;5.30;99.90;;;;;;5101320;28;20040;-67
2022/03/02 04:15:11;;;;;;;50.83;31.33;;;5.30;99.90;;;;;;5100643;28;20040;-67
2022/03/02 04:17:37;;;;;;;50.33;30.67;;;5.40;99.90;;;;;;5104169;28;20083;-67
2022/03/02 04:20:05;;;;;;;50.90;30.63;;;5.40;99.90;;;;;;5101186;28;20196;-67
2022/03/02 04:22:31;;;;;;;49.45;30.05;;;5.40;99.90;;;;;;5105588;28;20060;-67
2022/03/02 04:24:56;;;;;;;49.13;29.83;;;5.30;99.90;;;;;;5101394;28;20074;-67
2022/03/02 04:27:22;;;;;;;52.70;30.95;;;5.40;99.90;;;;;;5102884;28;20058;-67
2022/03/02 04:29:48;;;;;;;51.75;30.90;;;5.30;99.90;;;;;;5099991;28;20056;-67
2022/03/02 04:32:14;;;;;;;48.53;29.80;;;5.30;99.90;;;;;;5106355;28;20063;-67
2022/03/02 04:34:40;;;;;;;53.40;31.88;;;5.10;99.90;;;;;;5106912;28;20372;-67
2022/03/02 04:37:06;;;;;;;50.25;33.10;;;5.10;99.90;;;;;;5104497;28;20103;-67
2022/03/02 04:39:31;;;;;;;51.35;30.33;;;5.00;99.90;;;;;;5100602;28;20480;-67
2022/03/02 04:41:57;;;;;;;51.80;31.10;;;5.10;99.90;;;;;;5105340;28;20100;-67
2022/03/02 04:44:23;;;;;;;53.50;32.58;;;5.00;99.90;;;;;;5092781;28;20044;-67
2022/03/02 04:46:51;;;;;;;47.88;30.13;;;5.00;99.90;;;;;;5105023;28;20036;-67
2022/03/02 04:49:18;;;;;;;48.60;29.58;;;5.00;99.90;;;;;;5104013;28;20099;-67
2022/03/02 04:51:45;;;;;;;49.40;29.67;;;5.10;99.90;;;;;;5102219;28;20059;-67
2022/03/02 04:55:05;;;;;;;47.15;30.60;;;4.90;99.90;;;;;;5075927;28;20044;-67
2022/03/02 04:57:02;;;;;;;49.80;31.02;;;4.90;99.90;;;;;;5097777;28;20054;-67
2022/03/02 04:59:28;;;;;;;50.28;31.02;;;5.00;99.90;;;;;;5104153;28;20562;-67
2022/03/02 05:01:53;;;;;;;52.28;30.90;;;5.00;99.90;;;;;;5094165;28;20032;-67
2022/03/02 05:04:20;;;;;;;49.38;30.63;;;5.10;99.90;;;;;;5104875;28;20051;-67
2022/03/02 05:06:45;;;;;;;47.65;29.85;;;5.10;99.90;;;;;;5104355;28;20052;-67
2022/03/02 05:09:11;;;;;;;47.00;28.48;;;5.10;99.90;;;;;;5102054;28;20071;-67
2022/03/02 05:11:37;;;;;;;51.13;31.05;;;5.20;99.90;;;;;;5104630;28;20047;-67
2022/03/02 05:14:04;;;;;;;49.65;30.90;;;5.20;99.90;;;;;;5106174;28;20506;-67
2022/03/02 05:16:29;;;;;;;48.22;30.70;;;5.10;99.90;;;;;;5102485;28;20079;-67
2022/03/02 05:18:55;;;;;;;52.03;31.27;;;5.10;99.90;;;;;;5104340;28;20080;-67
2022/03/02 05:21:21;;;;;;;52.38;29.95;;;4.90;99.90;;;;;;5102686;28;20096;-67
2022/03/02 05:23:46;;;;;;;51.47;29.48;;;5.00;99.90;;;;;;5090747;28;20467;-67
2022/03/02 05:26:12;;;;;;;48.72;30.17;;;4.90;99.90;;;;;;5104461;28;20052;-67
2022/03/02 05:28:38;;;;;;;51.63;30.67;;;4.70;99.90;;;;;;5104515;28;20131;-67
2022/03/02 05:31:03;;;;;;;50.53;30.02;;;4.70;99.90;;;;;;5101896;28;20048;-67
2022/03/02 05:33:29;;;;;;;47.63;30.70;;;4.50;99.90;;;;;;5095538;28;20040;-67
2022/03/02 05:35:55;;;;;;;46.92;28.02;;;4.40;99.90;;;;;;5101094;28;20085;-67
2022/03/02 05:38:21;;;;;;;47.38;29.83;;;4.20;99.90;;;;;;5103968;28;20040;-67
2022/03/02 05:40:47;;;;;;;47.72;27.90;;;4.00;99.90;;;;;;5103276;28;20044;-67
2022/03/02 05:43:13;;;;;;;47.35;29.98;;;4.10;99.90;;;;;;5103551;28;20040;-67
2022/03/02 05:45:38;;;;;;;52.15;31.08;;;3.90;99.90;;;;;;5097525;28;20052;-67
2022/03/02 05:48:04;;;;;;;51.63;29.75;;;3.80;99.90;;;;;;5094969;28;20095;-67
2022/03/02 05:50:30;;;;;;;57.05;30.77;;;3.80;99.90;;;;;;5101041;28;20048;-66
2022/03/02 05:52:56;;;;;;;49.72;29.83;;;3.90;99.90;;;;;;5104525;28;20079;-67
2022/03/02 05:55:21;;;;;;;49.00;29.88;;;3.70;99.90;;;;;;5105425;28;20043;-67
2022/03/02 05:57:47;;;;;;;47.97;29.85;;;3.70;99.90;;;;;;5097670;28;20071;-67
2022/03/02 06:00:14;;;;;;;45.95;28.13;;;3.60;99.90;;;;;;5096756;28;20067;-67
2022/03/02 06:02:40;;;;;;;50.33;29.83;;;3.50;99.90;;;;;;5096418;28;20048;-66
2022/03/02 06:05:09;;;;;;;44.10;27.48;;;3.40;99.90;;;;;;5104829;28;20094;-67
2022/03/02 06:07:35;;;;;;;43.38;28.05;;;3.30;99.90;;;;;;5097590;28;20056;-67
2022/03/02 06:10:01;;;;;;;50.17;28.77;;;3.00;99.90;;;;;;5092819;28;20044;-67
2022/03/02 06:12:27;;;;;;;51.67;30.15;;;3.00;99.90;;;;;;5043978;28;20166;-66
2022/03/02 06:14:53;;;;;;;53.08;30.70;;;2.70;99.90;;;;;;5095057;28;20043;-66
2022/03/02 06:17:19;;;;;;;50.90;30.15;;;2.80;99.90;;;;;;5101752;28;20044;-64
2022/03/02 06:19:46;;;;;;;42.42;25.42;;;2.60;99.90;;;;;;5103612;28;20043;-67
2022/03/02 06:22:15;;;;;;;41.75;25.77;;;2.70;99.90;;;;;;5100461;28;20085;-68
2022/03/02 06:24:41;;;;;;;48.33;29.60;;;2.70;99.90;;;;;;5100568;28;20054;-67
2022/03/02 06:27:07;;;;;;;47.13;28.70;;;2.60;99.90;;;;;;5103220;28;20036;-67
2022/03/02 06:29:33;;;;;;;47.83;28.35;;;2.70;99.90;;;;;;5102627;28;20396;-67
2022/03/02 06:31:59;;;;;;;48.30;29.88;;;2.50;99.90;;;;;;5097607;28;20056;-67
2022/03/02 06:34:25;;;;;;;44.33;27.00;;;2.60;99.90;;;;;;5100091;28;20067;-67
2022/03/02 06:36:51;;;;;;;48.10;28.52;;;2.60;99.90;;;;;;5105734;28;20139;-67
2022/03/02 06:39:21;;;;;;;51.10;30.73;;;2.30;99.90;;;;;;5106801;28;20164;-67
2022/03/02 06:41:57;;;;;;;;;;;2.60;99.90;;;;;;5106655;28;20047;-67
2022/03/02 06:44:45;;;;;;;49.00;29.45;;;2.40;99.90;;;;;;5103915;28;19923;-67
2022/03/02 06:47:13;;;;;;;51.80;29.23;;;2.20;99.90;;;;;;5106419;28;20101;-67
2022/03/02 06:49:38;;;;;;;49.50;30.20;;;2.30;99.90;;;;;;5102747;28;20549;-67
2022/03/02 06:52:06;;;;;;;53.15;31.15;;;2.30;99.90;;;;;;5105158;28;20036;-66
2022/03/02 06:54:32;;;;;;;53.55;31.58;;;2.60;99.90;;;;;;5104893;28;20072;-66
2022/03/02 06:57:01;;;;;;;57.58;32.83;;;2.40;99.90;;;;;;5102337;28;20064;-66
2022/03/02 06:59:38;;;;;;;54.92;31.92;;;2.60;99.90;;;;;;5105593;28;20111;-67
2022/03/02 07:02:05;;;;;;;53.83;31.73;;;2.70;99.90;;;;;;5102189;28;20092;-67
2022/03/02 07:04:40;;;;;;;61.75;35.55;;;2.70;99.90;;;;;;5074865;28;20045;-67
2022/03/02 07:07:07;;;;;;;56.47;32.75;;;3.00;99.90;;;;;;5086281;28;20043;-67
2022/03/02 07:09:33;;;;;;;52.00;32.38;;;2.90;99.90;;;;;;5100583;28;20048;-67
2022/03/02 07:12:01;;;;;;;56.85;33.05;;;3.20;99.90;;;;;;5093518;28;20104;-66
2022/03/02 07:14:31;;;;;;;61.53;34.03;;;3.30;99.90;;;;;;5095712;28;20040;-67
2022/03/02 07:16:59;;;;;;;57.65;34.70;;;3.20;99.90;;;;;;5096394;28;20052;-66
2022/03/02 07:19:25;;;;;;;56.28;32.70;;;3.20;99.90;;;;;;5097047;28;20072;-65
2022/03/02 07:21:52;;;;;;;54.97;32.58;;;3.40;99.90;;;;;;5102961;28;20040;-67
2022/03/02 07:24:22;;;;;;;58.38;33.30;;;3.40;99.90;;;;;;5079886;28;20281;-67
2022/03/02 07:26:52;;;;;;;55.10;33.83;;;3.70;99.90;;;;;;5084358;28;20093;-67
2022/03/02 07:29:20;;;;;;;55.95;33.90;;;3.70;99.90;;;;;;5091747;28;20044;-67
2022/03/02 07:31:47;;;;;;;56.50;32.15;;;3.60;99.90;;;;;;5086302;28;20113;-67
2022/03/02 07:34:15;;;;;;;55.33;33.45;;;3.60;99.90;;;;;;5091984;28;20075;-70
2022/03/02 07:36:41;;;;;;;55.95;32.38;;;3.60;99.90;;;;;;5089804;28;20059;-70
2022/03/02 07:39:09;;;;;;;56.42;31.90;;;3.80;99.90;;;;;;5072769;28;20109;-69
2022/03/02 07:41:35;;;;;;;57.17;32.70;;;3.80;99.90;;;;;;5093489;28;20072;-70
2022/03/02 07:44:02;;;;;;;56.40;31.95;;;3.70;99.90;;;;;;5064065;28;20094;-70
2022/03/02 07:46:29;;;;;;;58.40;32.33;;;3.90;99.90;;;;;;5085233;28;20048;-70
2022/03/02 07:48:58;;;;;;;52.88;31.10;;;3.80;99.90;;;;;;5082323;28;20052;-70
2022/03/02 07:51:24;;;;;;;52.17;31.02;;;4.00;99.90;;;;;;5087834;28;20143;-70
2022/03/02 07:53:55;;;;;;;53.67;31.48;;;4.00;99.90;;;;;;5068955;28;20044;-71
2022/03/02 07:56:22;;;;;;;52.50;31.98;;;3.80;99.90;;;;;;5090548;28;20124;-74
2022/03/02 07:58:49;;;;;;;54.08;31.65;;;3.90;99.90;;;;;;5084602;28;20047;-72
2022/03/02 08:01:19;;;;;;;52.53;32.28;;;4.20;99.90;;;;;;5091864;28;20044;-71
2022/03/02 08:03:45;;;;;;;50.10;30.75;;;4.00;99.90;;;;;;5074642;28;20039;-70
2022/03/02 08:06:12;;;;;;;53.50;30.58;;;4.10;99.90;;;;;;5074466;28;20048;-68
2022/03/02 08:08:38;;;;;;;52.55;31.40;;;4.30;99.90;;;;;;5089231;28;20152;-68
2022/03/02 08:11:05;;;;;;;47.88;30.02;;;4.50;99.90;;;;;;5096308;28;20071;-70
2022/03/02 08:13:33;;;;;;;52.08;29.67;;;4.30;99.90;;;;;;5089450;28;20319;-74
2022/03/02 08:16:00;;;;;;;48.80;30.33;;;4.30;99.90;;;;;;5092905;28;20040;-72
2022/03/02 08:18:26;;;;;;;49.22;31.33;;;4.50;99.90;;;;;;5082109;28;20071;-72
2022/03/02 08:20:55;;;;;;;48.03;27.95;;;4.50;99.90;;;;;;5060267;28;20044;-72
2022/03/02 08:23:23;;;;;;;52.17;29.88;;;4.70;99.90;;;;;;5093194;28;20063;-72
2022/03/02 08:25:53;;;;;;;49.55;27.58;;;4.80;99.90;;;;;;5073107;28;20048;-72
2022/03/02 08:28:20;;;;;;;47.35;27.92;;;4.70;99.90;;;;;;5091459;28;20044;-72
2022/03/02 08:30:50;;;;;;;46.50;27.80;;;4.90;99.90;;;;;;5075906;28;20604;-72
2022/03/02 08:33:27;;;;;;;43.72;25.65;;;4.80;99.90;;;;;;5095885;28;20100;-72
2022/03/02 08:35:54;;;;;;;42.63;27.42;;;5.00;99.90;;;;;;5074551;28;20052;-72
2022/03/02 08:38:21;;;;;;;46.20;29.00;;;5.00;99.90;;;;;;5095761;28;20092;-72
2022/03/02 08:40:47;;;;;;;46.08;27.75;;;5.10;99.90;;;;;;5074620;28;20229;-72
2022/03/02 08:43:15;;;;;;;47.47;27.10;;;5.30;99.90;;;;;;5095875;28;20476;-72
2022/03/02 08:45:49;;;;;;;45.10;27.85;;;5.50;99.90;;;;;;5072617;28;20083;-72
2022/03/02 08:48:17;;;;;;;44.60;28.48;;;5.50;99.90;;;;;;5080678;28;20044;-72
2022/03/02 08:50:44;;;;;;;47.55;29.17;;;5.40;99.90;;;;;;5073105;28;20059;-72
2022/03/02 08:53:15;;;;;;;45.20;26.27;;;5.40;99.90;;;;;;5091620;28;20032;-72
2022/03/02 08:55:43;;;;;;;43.95;25.95;;;5.60;99.90;;;;;;5089223;28;20087;-72
2022/03/02 08:58:09;;;;;;;45.95;26.10;;;5.60;99.90;;;;;;5090886;28;20518;-72
2022/03/02 09:00:36;;;;;;;42.97;26.75;;;5.60;99.90;;;;;;5087698;28;20069;-72
2022/03/02 09:03:04;;;;;;;40.88;24.77;;;5.70;99.90;;;;;;5084353;28;20055;-72
2022/03/02 09:05:30;;;;;;;42.65;27.08;;;5.80;99.90;;;;;;5080934;28;20058;-72
2022/03/02 09:07:56;;;;;;;41.55;25.80;;;5.90;99.90;;;;;;5095669;28;20139;-72
2022/03/02 09:10:23;;;;;;;40.28;24.77;;;6.00;99.90;;;;;;5079926;28;20163;-72
2022/03/02 09:12:52;;;;;;;41.35;24.90;;;6.00;99.90;;;;;;5087837;28;20129;-72
2022/03/02 09:15:18;;;;;;;40.67;25.10;;;6.10;99.90;;;;;;5094240;28;20097;-72
2022/03/02 09:17:44;;;;;;;38.65;25.20;;;6.10;99.90;;;;;;5064862;28;20111;-72
2022/03/02 09:20:10;;;;;;;42.22;27.42;;;6.30;99.90;;;;;;5073805;28;20129;-72
2022/03/02 09:22:38;;;;;;;42.38;25.77;;;6.40;99.90;;;;;;5090006;28;20244;-72
2022/03/02 09:25:06;;;;;;;36.17;24.30;;;6.60;99.90;;;;;;5087421;28;20232;-72
2022/03/02 09:27:32;;;;;;;40.38;24.73;;;6.50;99.90;;;;;;5090735;28;20108;-72
2022/03/02 09:30:00;;;;;;;41.80;25.30;;;6.60;99.90;;;;;;5089454;28;20036;-72
2022/03/02 09:32:27;;;;;;;45.38;24.90;;;6.60;99.90;;;;;;5069472;28;20355;-72
2022/03/02 09:34:57;;;;;;;36.65;23.85;;;6.70;99.90;;;;;;5071834;28;20079;-72
2022/03/02 09:37:26;;;;;;;38.25;23.48;;;6.80;99.90;;;;;;5069235;28;20055;-72
2022/03/02 09:39:52;;;;;;;36.97;24.23;;;7.00;99.90;;;;;;5086074;28;20054;-72
2022/03/02 09:42:31;;;;;;;39.17;24.13;;;7.10;99.90;;;;;;5095074;28;20043;-72
2022/03/02 09:45:06;;;;;;;36.25;23.17;;;7.00;99.90;;;;;;5078172;28;20079;-72
2022/03/02 09:47:53;;;;;;;39.85;23.80;;;7.00;99.90;;;;;;5088191;28;20056;-72
2022/03/02 09:50:20;;;;;;;37.63;25.05;;;7.10;99.90;;;;;;5078363;28;20048;-72
2022/03/02 09:52:47;;;;;;;38.47;23.88;;;7.20;99.90;;;;;;5084484;28;20052;-72
2022/03/02 09:55:21;;;;;;;37.28;23.58;;;7.30;99.90;;;;;;5074649;28;20071;-72
2022/03/02 09:57:52;;;;;;;36.38;23.10;;;7.50;99.90;;;;;;5090658;28;20689;-72
2022/03/02 10:00:20;;;;;;;32.33;22.13;;;7.50;99.90;;;;;;5088703;28;20320;-72
2022/03/02 10:02:48;;;;;;;37.10;24.30;;;7.60;99.90;;;;;;5087864;28;20043;-72
2022/03/02 10:05:21;;;;;;;37.92;22.92;;;7.50;99.90;;;;;;5076496;28;20060;-72
2022/03/02 10:08:02;;;;;;;37.10;22.60;;;7.70;99.90;;;;;;5084065;28;20404;-72
2022/03/02 10:10:31;;;;;;;40.22;24.13;;;7.60;99.90;;;;;;5056670;28;20460;-72
2022/03/02 10:13:05;;;;;;;38.40;23.25;;;7.60;99.90;;;;;;5093403;28;20052;-72
2022/03/02 10:15:31;;;;;;;36.35;22.77;;;7.60;99.90;;;;;;5072822;28;20052;-72
2022/03/02 10:17:59;;;;;;;38.65;24.83;;;7.70;99.90;;;;;;5070350;28;20574;-72
2022/03/02 10:20:27;;;;;;;38.55;24.15;;;7.70;99.90;;;;;;5084329;28;20054;-72
2022/03/02 10:23:22;;;;;;;37.40;23.38;;;7.80;99.90;;;;;;5092913;28;20055;-72
2022/03/02 10:26:10;;;;;;;36.78;23.48;;;7.70;99.90;;;;;;5056658;28;20055;-72
2022/03/02 10:28:45;;;;;;;38.38;23.75;;;7.70;99.90;;;;;;5093148;28;20074;-72
2022/03/02 10:31:32;;;;;;;37.85;23.25;;;7.80;99.90;;;;;;5067967;28;20113;-72
2022/03/02 10:34:10;;;;;;;35.85;23.77;;;7.90;99.90;;;;;;5073552;28;20036;-72
2022/03/02 10:36:42;;;;;;;40.28;24.73;;;7.90;99.90;;;;;;5081597;28;20040;-72
2022/03/02 10:39:08;;;;;;;39.78;25.23;;;8.10;99.90;;;;;;5084454;28;20046;-72
2022/03/02 10:41:39;;;;;;;36.00;23.45;;;8.20;99.90;;;;;;5097011;28;20131;-72
2022/03/02 10:44:55;;;;;;;35.22;24.45;;;8.40;99.90;;;;;;5085408;28;20080;-72
2022/03/02 10:47:24;;;;;;;37.15;24.88;;;8.40;99.90;;;;;;5009156;28;20207;-72
2022/03/02 10:49:52;;;;;;;36.30;23.92;;;8.40;99.90;;;;;;5000564;28;20121;-72
2022/03/02 10:52:21;;;;;;;35.63;23.30;;;8.50;99.90;;;;;;5009249;28;20053;-72
2022/03/02 10:54:49;;;;;;;36.10;22.43;;;8.50;99.90;;;;;;5000273;28;20100;-72
2022/03/02 10:57:18;;;;;;;32.90;20.55;;;8.60;99.90;;;;;;5027252;28;20144;-72
2022/03/02 10:59:45;;;;;;;35.65;23.05;;;8.70;99.90;;;;;;5006439;28;20057;-72
2022/03/02 11:02:11;;;;;;;34.33;21.27;;;8.80;99.90;;;;;;5023260;28;20040;-72
2022/03/02 11:04:43;;;;;;;29.42;21.25;;;8.80;99.90;;;;;;5008140;28;20357;-72
2022/03/02 11:07:10;;;;;;;40.38;22.25;;;8.80;99.90;;;;;;5003635;28;20049;-72
2022/03/02 11:09:37;;;;;;;31.15;22.33;;;8.80;99.90;;;;;;4997385;28;20061;-72
2022/03/02 11:12:05;;;;;;;30.58;20.20;;;8.80;99.90;;;;;;4995787;28;20108;-72
2022/03/02 11:14:31;;;;;;;36.65;22.05;;;9.00;99.90;;;;;;5006782;28;20537;-72
2022/03/02 11:17:16;;;;;;;32.53;20.88;;;9.00;99.90;;;;;;5031428;28;20063;-72
2022/03/02 11:19:45;;;;;;;32.40;21.92;;;9.10;99.90;;;;;;4985980;28;20042;-72
2022/03/02 11:22:13;;;;;;;33.25;21.88;;;9.10;99.90;;;;;;5024548;28;20083;-72
2022/03/02 11:24:40;;;;;;;33.63;20.98;;;9.20;99.90;;;;;;5083616;28;20079;-72
2022/03/02 11:27:06;;;;;;;35.15;22.45;;;9.40;99.90;;;;;;5083926;28;20043;-72
2022/03/02 11:29:32;;;;;;;34.42;21.83;;;9.30;99.90;;;;;;5089690;28;20574;-72
2022/03/02 11:31:58;;;;;;;31.90;21.63;;;9.40;99.90;;;;;;5082001;28;20051;-72
2022/03/02 11:34:29;;;;;;;33.20;20.70;;;9.40;99.90;;;;;;5072500;28;20473;-72
2022/03/02 11:37:01;;;;;;;34.08;20.55;;;9.60;99.90;;;;;;5090380;28;20056;-72
2022/03/02 11:39:28;;;;;;;32.95;21.17;;;9.60;99.90;;;;;;5064466;28;20059;-72
2022/03/02 11:41:57;;;;;;;31.80;20.85;;;9.60;99.90;;;;;;5062798;28;20232;-72
2022/03/02 11:44:33;;;;;;;31.90;20.83;;;9.60;99.90;;;;;;5086311;28;20036;-72
2022/03/02 11:47:17;;;;;;;32.03;20.35;;;9.70;99.90;;;;;;5104675;28;20099;-72
2022/03/02 11:49:50;;;;;;;30.60;20.50;;;9.70;99.90;;;;;;5085288;28;20051;-72
2022/03/02 11:52:19;;;;;;;31.75;21.13;;;9.70;99.90;;;;;;5075408;28;20115;-72
2022/03/02 11:54:56;;;;;;;29.70;20.52;;;9.70;99.90;;;;;;5090416;28;20058;-72
2022/03/02 11:57:26;;;;;;;30.48;19.42;;;9.80;99.90;;;;;;5087905;28;20354;-72
2022/03/02 12:00:20;;;;;;;32.38;21.48;;;10.00;99.90;;;;;;5084163;28;20530;-72
2022/03/02 12:02:58;;;;;;;30.73;20.52;;;10.00;99.90;;;;;;5090209;28;20476;-72
2022/03/02 12:05:30;;;;;;;30.98;21.27;;;10.00;99.90;;;;;;5096879;28;20306;-72
2022/03/02 12:08:11;;;;;;;31.83;20.00;;;10.00;99.90;;;;;;5088033;28;20456;-72
2022/03/02 12:10:40;;;;;;;28.00;18.55;;;10.20;99.90;;;;;;5078898;28;20039;-73
2022/03/02 12:13:06;;;;;;;28.92;19.75;;;10.40;99.90;;;;;;5087485;28;20101;-73
2022/03/02 12:15:42;;;;;;;30.52;20.85;;;10.40;99.90;;;;;;5083501;28;20074;-73
2022/03/02 12:18:10;;;;;;;29.20;20.48;;;10.50;99.90;;;;;;5072557;28;20048;-73
2022/03/02 12:20:48;;;;;;;32.00;21.15;;;10.50;99.90;;;;;;5096006;28;20050;-73
2022/03/02 12:23:22;;;;;;;27.73;18.70;;;10.90;99.90;;;;;;5092552;28;20048;-73
2022/03/02 12:25:48;;;;;;;29.00;19.50;;;11.00;99.90;;;;;;5089973;28;20085;-72
2022/03/02 12:28:16;;;;;;;27.15;18.90;;;11.00;99.90;;;;;;5088187;28;20052;-72
2022/03/02 12:30:42;;;;;;;27.95;19.05;;;11.20;99.90;;;;;;5082357;28;20325;-72
2022/03/02 12:33:08;;;;;;;28.35;19.63;;;11.20;99.90;;;;;;5090401;28;20048;-72
2022/03/02 12:35:35;;;;;;;26.55;18.35;;;11.50;99.90;;;;;;5079482;28;20123;-72
2022/03/02 12:38:04;;;;;;;29.65;19.80;;;11.60;99.90;;;;;;5090013;28;20044;-72
2022/03/02 12:40:31;;;;;;;28.08;19.25;;;11.80;99.90;;;;;;5080639;28;20048;-73